TRA83L LGPZ-EHAM
Flight info
| Callsign | TRA83L |
|---|---|
| Flight time | N/A |
| Altitude | 38000 |
| Route | MALED UM127 KRK UL53 OLGAT DCT CRAYE DCT GISAM DCT DARZA DCT INGID DCT SIMBA DCT GASKA DCT MAPOX DCT NORKU |
| Aircraft | B738/M-SDE2E3FGHIRWXY/LB1 |
Departure
| Time | 2026-05-08 06:46 |
|---|---|
| Airport | Aktion National Airport (LGPZ) |
Arrival
| Time | N/A |
|---|---|
| Airport | Amsterdam Airport Schiphol (EHAM) |
| Time | Latitude | Longitude | Altitude | Speed | Heading |
|---|---|---|---|---|---|
| 2026-05-08 06:22 | 38.93026 | 20.77291 | 10 ft | 0 kts | 339° |
| 2026-05-08 06:41 | 38.93004 | 20.77302 | 18 ft | 6 kts | 339° |
| 2026-05-08 06:41 | 38.92965 | 20.77315 | 20 ft | 6 kts | 19° |
| 2026-05-08 06:41 | 38.92947 | 20.77297 | 17 ft | 0 kts | 69° |
| 2026-05-08 06:43 | 38.92947 | 20.77298 | 17 ft | 2 kts | 69° |
| 2026-05-08 06:43 | 38.92962 | 20.77349 | 18 ft | 10 kts | 69° |
| 2026-05-08 06:43 | 38.92928 | 20.77428 | 17 ft | 11 kts | 155° |
| 2026-05-08 06:43 | 38.92881 | 20.77498 | 15 ft | 11 kts | 88° |
| 2026-05-08 06:44 | 38.92904 | 20.77594 | 17 ft | 14 kts | 68° |
| 2026-05-08 06:44 | 38.92924 | 20.77740 | 19 ft | 21 kts | 123° |
| 2026-05-08 06:44 | 38.92844 | 20.77874 | 19 ft | 21 kts | 71° |
| 2026-05-08 06:44 | 38.92897 | 20.78044 | 19 ft | 19 kts | 67° |
| 2026-05-08 06:45 | 38.92972 | 20.78098 | 18 ft | 12 kts | 319° |
| 2026-05-08 06:45 | 38.92978 | 20.78088 | 18 ft | 3 kts | 306° |
| 2026-05-08 06:45 | 38.92995 | 20.78057 | 19 ft | 9 kts | 304° |
| 2026-05-08 06:45 | 38.92994 | 20.77888 | 19 ft | 44 kts | 251° |
| 2026-05-08 06:46 | 38.92772 | 20.77177 | 16 ft | 125 kts | 248° |
| 2026-05-08 06:46 | 38.92358 | 20.75873 | 118 ft | 183 kts | 248° |
| 2026-05-08 06:46 | 38.91860 | 20.74226 | 735 ft | 209 kts | 248° |
| 2026-05-08 06:46 | 38.91724 | 20.72420 | 1995 ft | 203 kts | 279° |
| 2026-05-08 06:47 | 38.91974 | 20.70611 | 2912 ft | 211 kts | 269° |
| 2026-05-08 06:47 | 38.92112 | 20.68667 | 3391 ft | 223 kts | 267° |
| 2026-05-08 06:47 | 38.92260 | 20.66680 | 4032 ft | 222 kts | 268° |
| 2026-05-08 06:47 | 38.92421 | 20.64721 | 4732 ft | 221 kts | 267° |
| 2026-05-08 06:48 | 38.92589 | 20.62761 | 5382 ft | 221 kts | 269° |
| 2026-05-08 06:48 | 38.93167 | 20.60870 | 5934 ft | 243 kts | 301° |
| 2026-05-08 06:48 | 38.94462 | 20.59277 | 6159 ft | 272 kts | 314° |
| 2026-05-08 06:48 | 38.95988 | 20.57680 | 6588 ft | 289 kts | 315° |
| 2026-05-08 06:49 | 38.97562 | 20.56073 | 7432 ft | 288 kts | 315° |
| 2026-05-08 06:49 | 38.99122 | 20.54478 | 8349 ft | 286 kts | 314° |
| 2026-05-08 06:49 | 39.00678 | 20.52874 | 9200 ft | 287 kts | 314° |
| 2026-05-08 06:49 | 39.02236 | 20.51255 | 10037 ft | 289 kts | 314° |
| 2026-05-08 06:50 | 39.03813 | 20.49604 | 10589 ft | 301 kts | 314° |
| 2026-05-08 06:50 | 39.05499 | 20.47823 | 10759 ft | 325 kts | 314° |
| 2026-05-08 06:50 | 39.07281 | 20.45938 | 10938 ft | 347 kts | 315° |
| 2026-05-08 06:50 | 39.09207 | 20.43905 | 11108 ft | 368 kts | 315° |
| 2026-05-08 06:51 | 39.11228 | 20.41777 | 11475 ft | 380 kts | 315° |
| 2026-05-08 06:51 | 39.13287 | 20.39614 | 12121 ft | 383 kts | 315° |
| 2026-05-08 06:51 | 39.15354 | 20.37439 | 12834 ft | 384 kts | 315° |
| 2026-05-08 06:51 | 39.17427 | 20.35252 | 13523 ft | 386 kts | 316° |
| 2026-05-08 06:52 | 39.19512 | 20.33045 | 14143 ft | 389 kts | 316° |
| 2026-05-08 06:52 | 39.21612 | 20.30820 | 14711 ft | 392 kts | 315° |
| 2026-05-08 06:52 | 39.23736 | 20.28589 | 15277 ft | 396 kts | 316° |
| 2026-05-08 06:52 | 39.25894 | 20.26368 | 15847 ft | 399 kts | 316° |
| 2026-05-08 06:53 | 39.28073 | 20.24136 | 16424 ft | 402 kts | 316° |
| 2026-05-08 06:53 | 39.30274 | 20.21881 | 16993 ft | 405 kts | 316° |
| 2026-05-08 06:53 | 39.32488 | 20.19606 | 17539 ft | 408 kts | 316° |
| 2026-05-08 06:53 | 39.34720 | 20.17307 | 18113 ft | 412 kts | 316° |
| 2026-05-08 06:54 | 39.36575 | 20.15393 | 18532 ft | 415 kts | 316° |
| 2026-05-08 06:54 | 39.38724 | 20.13173 | 19002 ft | 418 kts | 316° |
| 2026-05-08 06:54 | 39.41006 | 20.10814 | 19466 ft | 421 kts | 316° |
| 2026-05-08 06:54 | 39.43303 | 20.08437 | 19939 ft | 424 kts | 316° |
| 2026-05-08 06:55 | 39.45546 | 20.05957 | 20388 ft | 424 kts | 311° |
| 2026-05-08 06:55 | 39.47652 | 20.03268 | 20803 ft | 426 kts | 309° |
| 2026-05-08 06:55 | 39.49718 | 20.00509 | 21209 ft | 429 kts | 309° |
| 2026-05-08 06:55 | 39.51788 | 19.97707 | 21626 ft | 432 kts | 309° |
| 2026-05-08 06:56 | 39.53875 | 19.94887 | 22002 ft | 435 kts | 309° |
| 2026-05-08 06:56 | 39.55982 | 19.92057 | 22409 ft | 438 kts | 309° |
| 2026-05-08 06:56 | 39.58108 | 19.89218 | 22786 ft | 441 kts | 309° |
| 2026-05-08 06:56 | 39.60255 | 19.86362 | 23186 ft | 444 kts | 309° |
| 2026-05-08 06:57 | 39.62420 | 19.83486 | 23614 ft | 447 kts | 309° |
| 2026-05-08 06:57 | 39.64601 | 19.80592 | 23988 ft | 450 kts | 309° |
| 2026-05-08 06:57 | 39.66792 | 19.77683 | 24331 ft | 451 kts | 309° |
| 2026-05-08 06:57 | 39.68991 | 19.74763 | 24663 ft | 453 kts | 309° |
| 2026-05-08 06:58 | 39.71194 | 19.71833 | 25006 ft | 455 kts | 310° |
| 2026-05-08 06:58 | 39.73408 | 19.68884 | 25292 ft | 457 kts | 310° |
| 2026-05-08 06:58 | 39.75636 | 19.65914 | 25565 ft | 459 kts | 310° |
| 2026-05-08 06:58 | 39.77868 | 19.62934 | 25842 ft | 462 kts | 310° |
| 2026-05-08 06:59 | 39.80114 | 19.59933 | 26097 ft | 464 kts | 310° |
| 2026-05-08 06:59 | 39.82368 | 19.56918 | 26345 ft | 466 kts | 310° |
| 2026-05-08 06:59 | 39.84631 | 19.53889 | 26622 ft | 468 kts | 310° |
| 2026-05-08 06:59 | 39.86902 | 19.50846 | 26980 ft | 469 kts | 310° |
| 2026-05-08 07:00 | 39.89171 | 19.47803 | 27373 ft | 467 kts | 310° |
| 2026-05-08 07:00 | 39.91400 | 19.44812 | 27757 ft | 466 kts | 310° |
| 2026-05-08 07:00 | 39.93657 | 19.41778 | 28108 ft | 466 kts | 310° |
| 2026-05-08 07:00 | 39.95913 | 19.38742 | 28443 ft | 466 kts | 310° |
| 2026-05-08 07:01 | 39.98168 | 19.35705 | 28820 ft | 466 kts | 310° |
| 2026-05-08 07:01 | 40.00421 | 19.32667 | 29205 ft | 466 kts | 310° |
| 2026-05-08 07:01 | 40.02671 | 19.29630 | 29607 ft | 465 kts | 310° |
| 2026-05-08 07:01 | 40.04913 | 19.26601 | 29993 ft | 464 kts | 310° |
| 2026-05-08 07:02 | 40.07152 | 19.23571 | 30326 ft | 463 kts | 310° |
| 2026-05-08 07:02 | 40.09382 | 19.20552 | 30695 ft | 461 kts | 310° |
| 2026-05-08 07:02 | 40.11600 | 19.17548 | 31096 ft | 458 kts | 310° |
| 2026-05-08 07:02 | 40.13804 | 19.14559 | 31480 ft | 456 kts | 310° |
| 2026-05-08 07:03 | 40.15996 | 19.11581 | 31840 ft | 454 kts | 310° |
| 2026-05-08 07:03 | 40.18181 | 19.08610 | 32188 ft | 452 kts | 310° |
| 2026-05-08 07:03 | 40.20357 | 19.05650 | 32542 ft | 450 kts | 310° |
| 2026-05-08 07:03 | 40.22525 | 19.02706 | 32888 ft | 449 kts | 311° |
| 2026-05-08 07:04 | 40.24879 | 19.00000 | 33209 ft | 452 kts | 319° |
| 2026-05-08 07:04 | 40.27534 | 18.97767 | 33541 ft | 456 kts | 327° |
| 2026-05-08 07:04 | 40.30346 | 18.95853 | 33894 ft | 455 kts | 328° |
| 2026-05-08 07:04 | 40.33168 | 18.93982 | 34165 ft | 455 kts | 329° |
| 2026-05-08 07:05 | 40.35995 | 18.92113 | 34353 ft | 456 kts | 329° |
| 2026-05-08 07:05 | 40.38828 | 18.90226 | 34533 ft | 457 kts | 328° |
| 2026-05-08 07:05 | 40.41657 | 18.88326 | 34746 ft | 457 kts | 328° |
| 2026-05-08 07:05 | 40.44481 | 18.86415 | 34967 ft | 457 kts | 328° |
| 2026-05-08 07:06 | 40.47302 | 18.84496 | 35161 ft | 457 kts | 328° |
| 2026-05-08 07:06 | 40.50122 | 18.82570 | 35346 ft | 458 kts | 328° |
| 2026-05-08 07:06 | 40.52948 | 18.80636 | 35536 ft | 458 kts | 328° |
| 2026-05-08 07:06 | 40.55772 | 18.78702 | 35731 ft | 458 kts | 328° |
| 2026-05-08 07:07 | 40.58597 | 18.76765 | 35914 ft | 458 kts | 328° |
| 2026-05-08 07:07 | 40.61427 | 18.74823 | 36093 ft | 458 kts | 328° |
| 2026-05-08 07:07 | 40.64253 | 18.72883 | 36285 ft | 458 kts | 328° |
| 2026-05-08 07:07 | 40.67080 | 18.70940 | 36476 ft | 458 kts | 328° |
| 2026-05-08 07:08 | 40.69906 | 18.68997 | 36654 ft | 458 kts | 328° |
| 2026-05-08 07:08 | 40.72734 | 18.67050 | 36824 ft | 459 kts | 328° |
| 2026-05-08 07:08 | 40.74607 | 18.65760 | 36936 ft | 459 kts | 328° |
| 2026-05-08 07:08 | 40.77431 | 18.63813 | 37139 ft | 458 kts | 327° |
| 2026-05-08 07:09 | 40.80256 | 18.61863 | 37325 ft | 458 kts | 327° |
| 2026-05-08 07:09 | 40.83082 | 18.59911 | 37490 ft | 458 kts | 327° |
| 2026-05-08 07:09 | 40.85901 | 18.57961 | 37669 ft | 458 kts | 327° |
| 2026-05-08 07:09 | 40.88720 | 18.56010 | 37855 ft | 457 kts | 327° |
| 2026-05-08 07:10 | 40.91536 | 18.54059 | 38008 ft | 457 kts | 327° |
| 2026-05-08 07:10 | 40.94356 | 18.52102 | 38004 ft | 459 kts | 327° |
| 2026-05-08 07:10 | 41.00015 | 18.48171 | 38018 ft | 458 kts | 327° |
| 2026-05-08 07:11 | 41.05639 | 18.44259 | 38012 ft | 455 kts | 327° |
| 2026-05-08 07:11 | 41.11237 | 18.40356 | 38017 ft | 453 kts | 327° |
| 2026-05-08 07:12 | 41.16804 | 18.36467 | 38026 ft | 452 kts | 327° |
| 2026-05-08 07:12 | 41.22359 | 18.32578 | 38027 ft | 451 kts | 327° |
| 2026-05-08 07:13 | 41.27920 | 18.28676 | 38027 ft | 452 kts | 327° |
| 2026-05-08 07:13 | 41.33487 | 18.24763 | 38032 ft | 454 kts | 327° |
| 2026-05-08 07:14 | 41.39078 | 18.20826 | 38031 ft | 455 kts | 327° |
| 2026-05-08 07:14 | 41.44690 | 18.16867 | 38037 ft | 457 kts | 327° |
| 2026-05-08 07:15 | 41.50312 | 18.12879 | 38031 ft | 458 kts | 325° |
| 2026-05-08 07:15 | 41.55636 | 18.08363 | 38033 ft | 456 kts | 321° |
| 2026-05-08 07:16 | 41.60894 | 18.03601 | 38030 ft | 457 kts | 321° |
| 2026-05-08 07:16 | 41.66180 | 17.98851 | 38028 ft | 458 kts | 321° |
| 2026-05-08 07:17 | 41.71491 | 17.94122 | 38020 ft | 459 kts | 322° |
| 2026-05-08 07:17 | 41.76806 | 17.89394 | 38023 ft | 458 kts | 322° |
| 2026-05-08 07:18 | 41.82113 | 17.84661 | 38019 ft | 458 kts | 322° |
| 2026-05-08 07:18 | 41.87405 | 17.79929 | 38026 ft | 457 kts | 322° |
| 2026-05-08 07:19 | 41.92718 | 17.75226 | 38013 ft | 458 kts | 325° |
| 2026-05-08 07:19 | 41.98301 | 17.71072 | 38024 ft | 459 kts | 328° |
| 2026-05-08 07:20 | 42.03970 | 17.67104 | 38017 ft | 459 kts | 328° |
| 2026-05-08 07:20 | 42.09616 | 17.63108 | 38014 ft | 458 kts | 328° |
| 2026-05-08 07:21 | 42.15234 | 17.59064 | 38013 ft | 458 kts | 327° |
| 2026-05-08 07:21 | 42.20839 | 17.54997 | 38011 ft | 457 kts | 327° |
| 2026-05-08 07:22 | 42.26441 | 17.50919 | 38013 ft | 457 kts | 327° |
| 2026-05-08 07:22 | 42.32046 | 17.46833 | 38013 ft | 458 kts | 327° |
| 2026-05-08 07:23 | 42.37655 | 17.42737 | 38011 ft | 459 kts | 327° |
| 2026-05-08 07:23 | 42.43235 | 17.38653 | 38013 ft | 460 kts | 327° |
| 2026-05-08 07:24 | 42.48865 | 17.34526 | 38013 ft | 460 kts | 327° |
| 2026-05-08 07:24 | 42.54499 | 17.30387 | 38014 ft | 461 kts | 327° |
| 2026-05-08 07:25 | 42.60148 | 17.26228 | 38012 ft | 462 kts | 327° |
| 2026-05-08 07:26 | 42.68630 | 17.19967 | 38014 ft | 463 kts | 327° |
| 2026-05-08 07:26 | 42.74284 | 17.15783 | 38010 ft | 463 kts | 327° |
| 2026-05-08 07:27 | 42.79945 | 17.11585 | 38008 ft | 463 kts | 327° |
| 2026-05-08 07:27 | 42.85597 | 17.07385 | 38018 ft | 462 kts | 327° |
| 2026-05-08 07:28 | 42.91237 | 17.03185 | 38028 ft | 462 kts | 327° |
| 2026-05-08 07:28 | 42.96872 | 16.98980 | 38017 ft | 461 kts | 327° |
| 2026-05-08 07:29 | 43.02502 | 16.94769 | 38013 ft | 460 kts | 327° |
| 2026-05-08 07:29 | 43.08110 | 16.90566 | 38023 ft | 459 kts | 327° |
| 2026-05-08 07:30 | 43.13706 | 16.86363 | 38035 ft | 458 kts | 327° |
| 2026-05-08 07:30 | 43.19288 | 16.82162 | 38020 ft | 458 kts | 327° |
| 2026-05-08 07:31 | 43.24864 | 16.77957 | 38026 ft | 457 kts | 327° |
| 2026-05-08 07:31 | 43.30389 | 16.73781 | 38025 ft | 456 kts | 327° |
| 2026-05-08 07:32 | 43.35978 | 16.69547 | 38020 ft | 455 kts | 327° |
| 2026-05-08 07:32 | 43.41519 | 16.65342 | 38027 ft | 454 kts | 327° |
| 2026-05-08 07:33 | 43.47045 | 16.61139 | 38039 ft | 454 kts | 327° |
| 2026-05-08 07:33 | 43.52573 | 16.56925 | 38040 ft | 454 kts | 327° |
| 2026-05-08 07:34 | 43.58068 | 16.52727 | 38028 ft | 455 kts | 326° |
| 2026-05-08 07:34 | 43.63606 | 16.48489 | 38033 ft | 455 kts | 326° |
| 2026-05-08 07:35 | 43.69139 | 16.44245 | 38029 ft | 455 kts | 327° |
| 2026-05-08 07:35 | 43.74672 | 16.39993 | 38033 ft | 455 kts | 326° |
| 2026-05-08 07:36 | 43.80197 | 16.35737 | 38030 ft | 454 kts | 326° |
| 2026-05-08 07:36 | 43.85717 | 16.31475 | 38036 ft | 454 kts | 326° |
| 2026-05-08 07:37 | 43.91238 | 16.27204 | 38039 ft | 454 kts | 326° |
| 2026-05-08 07:37 | 43.96750 | 16.22931 | 38050 ft | 453 kts | 326° |
| 2026-05-08 07:38 | 44.02244 | 16.18662 | 38046 ft | 452 kts | 326° |
| 2026-05-08 07:38 | 44.07731 | 16.14391 | 38061 ft | 451 kts | 326° |
| 2026-05-08 07:39 | 44.13202 | 16.10121 | 38060 ft | 451 kts | 326° |
| 2026-05-08 07:39 | 44.18674 | 16.05842 | 38059 ft | 451 kts | 326° |
| 2026-05-08 07:40 | 44.24140 | 16.01558 | 38060 ft | 450 kts | 326° |
| 2026-05-08 07:40 | 44.29591 | 15.97278 | 38067 ft | 450 kts | 326° |
| 2026-05-08 07:41 | 44.35037 | 15.92993 | 38062 ft | 448 kts | 326° |
| 2026-05-08 07:41 | 44.40474 | 15.88704 | 38063 ft | 448 kts | 326° |
| 2026-05-08 07:42 | 44.45896 | 15.84419 | 38088 ft | 448 kts | 326° |
| 2026-05-08 07:42 | 44.51324 | 15.80118 | 38075 ft | 448 kts | 326° |
| 2026-05-08 07:43 | 44.56702 | 15.75849 | 38080 ft | 447 kts | 326° |
| 2026-05-08 07:43 | 44.62120 | 15.71539 | 38076 ft | 448 kts | 326° |
| 2026-05-08 07:44 | 44.67540 | 15.67218 | 38084 ft | 448 kts | 326° |
| 2026-05-08 07:44 | 44.72966 | 15.62883 | 38085 ft | 449 kts | 326° |
| 2026-05-08 07:45 | 44.78399 | 15.58532 | 38086 ft | 450 kts | 326° |
| 2026-05-08 07:45 | 44.83837 | 15.54168 | 38093 ft | 450 kts | 325° |
| 2026-05-08 07:46 | 44.89282 | 15.49788 | 38091 ft | 451 kts | 325° |
| 2026-05-08 07:46 | 44.94727 | 15.45400 | 38089 ft | 451 kts | 325° |
| 2026-05-08 07:47 | 45.00159 | 15.41013 | 38095 ft | 449 kts | 325° |
| 2026-05-08 07:47 | 45.05581 | 15.36623 | 38100 ft | 449 kts | 325° |
| 2026-05-08 07:48 | 45.10991 | 15.32233 | 38103 ft | 449 kts | 325° |
| 2026-05-08 07:48 | 45.16410 | 15.27826 | 38100 ft | 450 kts | 325° |
| 2026-05-08 07:49 | 45.21837 | 15.23403 | 38105 ft | 450 kts | 325° |
| 2026-05-08 07:49 | 45.27271 | 15.18964 | 38093 ft | 451 kts | 325° |
| 2026-05-08 07:50 | 45.32714 | 15.14508 | 38091 ft | 452 kts | 325° |
| 2026-05-08 07:50 | 45.38165 | 15.10035 | 38102 ft | 452 kts | 325° |
| 2026-05-08 07:51 | 45.43616 | 15.05552 | 38096 ft | 453 kts | 325° |
| 2026-05-08 07:51 | 45.49080 | 15.01050 | 38094 ft | 454 kts | 325° |
| 2026-05-08 07:52 | 45.54669 | 14.96821 | 38099 ft | 456 kts | 328° |
| 2026-05-08 07:52 | 45.60316 | 14.92827 | 38100 ft | 455 kts | 328° |
| 2026-05-08 07:53 | 45.65985 | 14.88803 | 38100 ft | 454 kts | 328° |
| 2026-05-08 07:53 | 45.71624 | 14.84744 | 38085 ft | 453 kts | 328° |
| 2026-05-08 07:54 | 45.77235 | 14.80675 | 38097 ft | 451 kts | 328° |
| 2026-05-08 07:54 | 45.82830 | 14.76603 | 38099 ft | 451 kts | 328° |
| 2026-05-08 07:55 | 45.88414 | 14.72530 | 38104 ft | 450 kts | 328° |
| 2026-05-08 07:55 | 45.93992 | 14.68454 | 38102 ft | 450 kts | 328° |
| 2026-05-08 07:56 | 45.99567 | 14.64371 | 38091 ft | 450 kts | 328° |
| 2026-05-08 07:56 | 46.04200 | 14.60971 | 38096 ft | 450 kts | 328° |
| 2026-05-08 07:57 | 46.09807 | 14.56848 | 38109 ft | 449 kts | 328° |
| 2026-05-08 07:57 | 46.15335 | 14.52774 | 38092 ft | 449 kts | 328° |
| 2026-05-08 07:58 | 46.20897 | 14.48665 | 38095 ft | 450 kts | 328° |
| 2026-05-08 07:58 | 46.26463 | 14.44544 | 38114 ft | 450 kts | 328° |
| 2026-05-08 07:59 | 46.32035 | 14.40408 | 38106 ft | 450 kts | 328° |
| 2026-05-08 07:59 | 46.37610 | 14.36261 | 38102 ft | 451 kts | 328° |
| 2026-05-08 08:00 | 46.43199 | 14.32094 | 38123 ft | 452 kts | 328° |
| 2026-05-08 08:00 | 46.48790 | 14.27917 | 38128 ft | 452 kts | 328° |
| 2026-05-08 08:01 | 46.54384 | 14.23727 | 38140 ft | 452 kts | 328° |
| 2026-05-08 08:01 | 46.59972 | 14.19531 | 38147 ft | 453 kts | 328° |
| 2026-05-08 08:02 | 46.65570 | 14.15317 | 38135 ft | 453 kts | 328° |
| 2026-05-08 08:02 | 46.71179 | 14.11087 | 38131 ft | 454 kts | 328° |
| 2026-05-08 08:03 | 46.76786 | 14.06847 | 38127 ft | 454 kts | 328° |
| 2026-05-08 08:03 | 46.82398 | 14.02594 | 38122 ft | 455 kts | 328° |
| 2026-05-08 08:04 | 46.88015 | 13.98327 | 38110 ft | 455 kts | 328° |
| 2026-05-08 08:04 | 46.93633 | 13.94049 | 38098 ft | 455 kts | 328° |
| 2026-05-08 08:05 | 46.99198 | 13.89802 | 38103 ft | 454 kts | 328° |
| 2026-05-08 08:05 | 47.04785 | 13.85526 | 38106 ft | 452 kts | 328° |
| 2026-05-08 08:06 | 47.10359 | 13.81251 | 38102 ft | 452 kts | 327° |
| 2026-05-08 08:06 | 47.15924 | 13.76971 | 38097 ft | 452 kts | 328° |
| 2026-05-08 08:07 | 47.21493 | 13.72680 | 38106 ft | 452 kts | 328° |
| 2026-05-08 08:07 | 47.27062 | 13.68378 | 38097 ft | 452 kts | 328° |
| 2026-05-08 08:08 | 47.32735 | 13.64346 | 38101 ft | 454 kts | 331° |
| 2026-05-08 08:08 | 47.38494 | 13.60499 | 38078 ft | 454 kts | 331° |
| 2026-05-08 08:09 | 47.44241 | 13.56622 | 38075 ft | 454 kts | 331° |
| 2026-05-08 08:09 | 47.49962 | 13.52705 | 38089 ft | 453 kts | 330° |
| 2026-05-08 08:10 | 47.55311 | 13.49016 | 38095 ft | 453 kts | 330° |
| 2026-05-08 08:10 | 47.60978 | 13.45096 | 38095 ft | 453 kts | 330° |
| 2026-05-08 08:11 | 47.66685 | 13.41141 | 38087 ft | 453 kts | 331° |
| 2026-05-08 08:11 | 47.72395 | 13.37175 | 38089 ft | 453 kts | 331° |
| 2026-05-08 08:12 | 47.78096 | 13.33206 | 38108 ft | 453 kts | 331° |
| 2026-05-08 08:12 | 47.83807 | 13.29220 | 38092 ft | 454 kts | 331° |
| 2026-05-08 08:13 | 47.89524 | 13.25220 | 38107 ft | 454 kts | 331° |
| 2026-05-08 08:13 | 47.95241 | 13.21211 | 38100 ft | 455 kts | 331° |
| 2026-05-08 08:14 | 48.00969 | 13.17185 | 38098 ft | 455 kts | 331° |
| 2026-05-08 08:14 | 48.06705 | 13.13141 | 38102 ft | 456 kts | 331° |
| 2026-05-08 08:15 | 48.12437 | 13.09091 | 38100 ft | 456 kts | 331° |
| 2026-05-08 08:15 | 48.18173 | 13.05029 | 38104 ft | 456 kts | 331° |
| 2026-05-08 08:16 | 48.23808 | 13.00686 | 38101 ft | 453 kts | 322° |
| 2026-05-08 08:16 | 48.28726 | 12.94871 | 38104 ft | 449 kts | 317° |
| 2026-05-08 08:17 | 48.33524 | 12.88868 | 38112 ft | 449 kts | 316° |